METAR Data
IDs: Format: Raw Decoded Include TAF

Data at: 0646 UTC 15 Nov 2018

METAR for:KRYW (Lago Vista/Allen Arp, TX, US)
Text:KRYW 150635Z AUTO 21003KT 10SM CLR 05/M04 A3033 RMK AO2 T00451040
Temperature: 4.5°C ( 40°F)
Dewpoint: -4.0°C ( 25°F) [RH = 54%]
Pressure (altimeter):30.33 inches Hg (1027.2 mb)
Winds:from the SSW (210 degrees) at 3 MPH (3 knots; 1.5 m/s)
Visibility:10 or more sm (16+ km)
Ceiling:at least 12,000 feet AGL
Clouds:sky clear below 12,000 feet AGL
QC Flag:automated observation with no human augmentation